Have a Safe July 4th! 

Flight Track Log - Related Links

Times and Time Zones

All times are in EDT time to prevent confusion due to time zone crossing. See the UAL4305 flight status page for this flight to view local times or setup timezone preferences in your user account.

Time Position Orientation Groundspeed Altitude Reporting Facility
EDT Latitude Longitude Course Direction KTS MPH feet Rate Location/Type
Sun 07:50:25 AM 33.6606 -101.7881 140° Southeast 171 197 4,000  Level Fort Worth Center
Sun 07:51:32 AM 33.6358 -101.7194 113° Southeast 208 239 6,100 1,937 Climbing Fort Worth Center
Sun 07:52:32 AM 33.5875 -101.6697 139° Southeast 242 278 8,100 1,983 Climbing Fort Worth Center
Sun 07:53:00 AM 33.4386 -101.5625 132° Southeast  Level FlightAware Approximate
Sun 07:53:33 AM 33.5353 -101.6122 137° Southeast 259 298 10,100  Level Fort Worth Center
Sun 07:54:00 AM 33.3640 -101.4806 140° Southeast  Level FlightAware Approximate
Sun 07:54:46 AM 33.4708 -101.5394 137° Southeast 325 374 12,000  Level Fort Worth Center
Sun 07:55:00 AM 33.2862 -101.4028 140° Southeast  Level FlightAware Approximate
Sun 07:55:46 AM 33.3983 -101.4617 138° Southeast 325 374 13,700  Level Fort Worth Center
Sun 07:56:46 AM 33.3378 -101.3942 137° Southeast 333 383 15,100 1,500 Climbing Fort Worth Center
Sun 07:57:46 AM 33.2592 -101.3111 139° Southeast 339 390 16,700 1,350 Climbing Fort Worth Center
Sun 07:58:46 AM 33.1922 -101.2411 139° Southeast 345 397 17,800 1,300 Climbing Fort Worth Center
Sun 07:59:46 AM 33.1094 -101.1533 138° Southeast 356 410 19,300 1,450 Climbing Fort Worth Center
Sun 08:00:46 AM 33.0428 -101.0811 138° Southeast 362 417 20,700 1,400 Climbing Fort Worth Center
Sun 08:01:46 AM 32.9636 -101.0011 140° Southeast 372 428 22,100 1,400 Climbing Fort Worth Center
Sun 08:02:46 AM 32.8864 -100.9211 139° Southeast 377 434 23,500 1,450 Climbing Fort Worth Center
Sun 08:03:46 AM 32.8094 -100.8392 138° Southeast 377 434 25,000 1,450 Climbing Fort Worth Center
Sun 08:04:46 AM 32.7303 -100.7572 139° Southeast 377 434 26,400 1,400 Climbing Fort Worth Center
Sun 08:05:46 AM 32.6511 -100.6728 138° Southeast 377 434 27,800 1,150 Climbing Fort Worth Center
Sun 08:06:46 AM 32.5678 -100.5883 139° Southeast 377 434 28,700 950 Climbing Fort Worth Center
Sun 08:07:46 AM 32.4864 -100.5042 139° Southeast 382 440 29,700 1,000 Climbing Fort Worth Center
Sun 08:08:46 AM 32.4028 -100.4178 139° Southeast 387 445 30,700 1,000 Climbing Fort Worth Center
Sun 08:09:46 AM 32.3172 -100.3289 139° Southeast 398 458 31,700 950 Climbing Fort Worth Center
Sun 08:10:46 AM 32.2317 -100.2400 139° Southeast 408 470 32,600 1,350 Climbing Fort Worth Center
Sun 08:11:46 AM 32.1458 -100.1517 139° Southeast 408 470 34,400 1,365 Climbing Fort Worth Center
Sun 08:13:55 AM 31.9692 -99.9664 138° Southeast 381 438 36,900 821 Climbing Houston Center
Sun 08:14:56 AM 31.8864 -99.8833 140° Southeast 388 447 37,000 49 Climbing Houston Center
Sun 08:15:57 AM 31.7997 -99.7942 139° Southeast 411 473 37,000  Level Houston Center
Sun 08:16:58 AM 31.7081 -99.7017 139° Southeast 429 494 37,000  Level Houston Center
Sun 08:17:58 AM 31.6144 -99.6056 139° Southeast 443 510 37,000  Level Houston Center
Sun 08:18:59 AM 31.5147 -99.5042 139° Southeast 451 519 37,000  Level Houston Center
Sun 08:20:00 AM 31.4175 -99.4083 140° Southeast 453 521 37,000  Level Houston Center
Sun 08:21:01 AM 31.3222 -99.3111 139° Southeast 450 518 37,000  Level Houston Center
Sun 08:22:02 AM 31.2642 -99.1733 116° Southeast 481 554 37,000  Level Houston Center
Sun 08:23:03 AM 31.2431 -99.0119 99° East 494 568 37,000  Level Houston Center
Sun 08:24:03 AM 31.2208 -98.8489 99° East 500 575 37,000  Level Houston Center
Sun 08:25:04 AM 31.1975 -98.6861 99° East 504 580 37,000  Level Houston Center
Sun 08:26:07 AM 31.1733 -98.5217 100° East 507 583 37,000  Level Houston Center
Sun 08:27:06 AM 31.1489 -98.3564 100° East 511 588 37,000  Level Houston Center
Sun 08:28:07 AM 31.1258 -98.1892 99° East 518 596 37,000  Level Houston Center
Sun 08:29:08 AM 31.1000 -98.0206 100° East 521 600 37,000  Level Houston Center
Sun 08:30:09 AM 31.0742 -97.8506 100° East 527 606 37,000  Level Houston Center
Sun 08:31:10 AM 31.0497 -97.6828 100° East 522 601 37,000  Level Houston Center
Sun 08:32:11 AM 31.0211 -97.5200 102° East 511 588 37,000  Level Houston Center
Sun 08:33:12 AM 30.9672 -97.3622 112° Southeast 498 573 37,000 -689 Level Houston Center
Sun 08:34:13 AM 30.9172 -97.2111 111° Southeast 498 573 35,600 -2,213 Descending Houston Center
Sun 08:35:14 AM 30.8644 -97.0486 111° Southeast 504 580 32,500 -2,754 Descending Houston Center
Sun 08:36:15 AM 30.8153 -96.9061 112° Southeast 474 545 30,000 -2,459 Descending Houston Center
Sun 08:37:16 AM 30.7644 -96.7611 112° Southeast 479 551 27,500 -2,459 Descending Houston Center
Sun 08:38:17 AM 30.7117 -96.6075 112° Southeast 505 581 25,000 -2,557 Descending Houston Center
Sun 08:39:18 AM 30.6603 -96.4581 112° Southeast 488 562 22,300 -2,705 Descending Houston Center
Sun 08:40:19 AM 30.6131 -96.3169 111° Southeast 470 541 19,500 -2,810 Descending Houston Center
Sun 08:40:37 AM 30.5950 -96.2708 114° Southeast 452 520 18,600 -2,333 Descending Houston Center
Sun 08:41:13 AM 30.5697 -96.1939 111° Southeast 441 507 17,400 -2,474 Descending Houston Center
Sun 08:42:14 AM 30.5256 -96.0678 112° Southeast 402 463 14,600 -2,438 Descending Houston Center
Sun 08:43:21 AM 30.4781 -95.9328 112° Southeast 402 463 12,200 -1,209 Descending Houston Center
Sun 08:44:23 AM 30.4281 -95.8383 122° Southeast 394 453 12,000 -639 Descending Houston Center
Sun 08:45:23 AM 30.3378 -95.7433 138° Southeast 371 427 10,900 -1,134 Descending Houston Center
Sun 08:46:30 AM 30.2617 -95.6653 138° Southeast 306 352 9,600 -1,377 Descending Houston Center
Sun 08:47:25 AM 30.2081 -95.6061 136° Southeast 288 331 8,100 -1,617 Descending Houston Center
Sun 08:48:25 AM 30.1500 -95.5456 138° Southeast 273 314 6,500 -1,041 Descending Houston Center
Sun 08:49:26 AM 30.1067 -95.4831 129° Southeast 255 293 6,000 -246 Descending Houston Center
Sun 08:50:27 AM 30.1056 -95.4011 91° East 256 295 6,000  Level Houston Center
Sun 08:51:28 AM 30.1067 -95.3211 89° East 246 283 6,000  Level Houston Center
Sun 08:52:29 AM 30.1053 -95.2369 91° East 253 291 6,000 -387 Level Houston Center
Sun 08:53:32 AM 30.1061 -95.1711 89° East 214 246 5,200 -1,475 Descending Houston Center
Sun 08:54:31 AM 30.0822 -95.1236 120° Southeast 219 252 3,000 -1,613 Descending Houston Center
Sun 08:55:31 AM 30.0306 -95.1567 209° Southwest 225 259 2,000 -545 Descending Houston Center
Sun 08:56:32 AM 30.0092 -95.2197 249° West 185 213 1,900 -443 Descending Houston Center
Sun 08:57:33 AM 30.0075 -95.2706 268° West 151 174 1,100 -787 Descending Houston Center

Login

Don't have an account? Register now (free) for customized features, flight alerts, and more!